Weather at Martinique Aimé Césaire International Airport

Public forecast

Using degrees Celsius for public forecast. Weather courtesy of forecast.io.

Current aviation weather report (METAR) for Martinique Aimé Césaire International Airport

Report is more than 6 hours old.

Retrieved 2022/09/17 19:00 UTC (15 days ago):

TFFF 171900Z AUTO 11004KT 040V180 2200 -RA BR FEW015/// BKN030/// BKN046/// 25/23 Q1011 TEMPO VRB15G25KT SHRA SCT010 FEW015CB BKN020TCU

Aviation forecast (TAF) for Martinique Aimé Césaire International Airport

Forecast is more than 12 hours old.

Retrieved 2022/09/17 18:24 UTC (15 days ago):

TAF TFFF 171700Z 1718/1818 16010KT 9999 BKN028 BKN055 TEMPO 1718/1721 VRB15G25KT 2000 SHRA SCT010 FEW015CB BKN020TCU PROB40 TEMPO 1718/1719 VRB20G30KT 1000 TSRA SCT008 BKN012CB PROB40 TEMPO 1721/1818 3000 SHRA BKN018TCU